Etusivu
METAR-TAF:

METAR-TAF

Lentoasemat :

Stampede Pass, Washington, Yhdysvallat

Leveyspiiri: 47-16-36N, Pituuspiiri: 121-20-14W, korkeus merenpinnasta: 1207 m

Tämänhetkinen sää

Tämä raportti tehtiin 39 minuuttia sitten, kello 16.56 UTC
tyyntä
Lämpötila 8°C
Kosteus 71%
Ilmanpaine 1007 hPa
Näkyvyys: 16.1 km
Pilvistä 4300 ft:n korkeudessa

METAR: KSMP 191656Z AUTO 00000KT 10SM OVC043 08/03 A2974 RMK AO2 SLP069 T00780033

Aika: 10:35 (17:35 UTC)


TAF: puuttuu

Säähavainnot ja -ennusteet yli 4000 lentoasemalta (METAR- ja TAF-raportit).

Käytössä olevat sääasemat on merkitty karttaan keltaisilla ja punaisilla pisteillä.

Aseta hiiri pisteen päälle nähdäksesi sääaseman nimen.

Klikkaa sitten nähdäksesi säähavainnot ja -ennusteet.

Kartan vaihtaminen: klikkaa mustalla rastilla varustettuja vihreitä pisteitä, niin voit zoomata sisään; viivalla varustettua vihreää pistettä, niin voit zoomata ulos tai vihreitä nuolia, niin pääset viereisille kartoille.


METAR-TAF: